createdAt,value
2023-05-02T00:00:25.745Z,11.25
2023-05-02T00:05:30.977Z,12.87
2023-05-02T00:10:35.148Z,12.66
2023-05-02T00:15:38.684Z,12.77
2023-05-02T00:20:43.568Z,11.16
2023-05-02T00:25:47.211Z,12.69
2023-05-02T00:30:50.844Z,12.66
2023-05-02T00:35:55.928Z,12.45
2023-05-02T00:40:59.563Z,12.61
2023-05-02T00:46:03.270Z,12.59
2023-05-02T00:51:08.951Z,11.60
2023-05-02T00:56:12.831Z,12.51
2023-05-02T01:01:29.115Z,12.55
2023-05-02T01:06:54.556Z,12.55
2023-05-02T01:17:33.961Z,12.24
2023-05-02T01:22:41.197Z,12.32
2023-05-02T01:27:52.576Z,11.66
2023-05-02T01:32:59.657Z,12.28
2023-05-02T01:38:04.825Z,12.01
2023-05-02T01:43:09.480Z,11.69
2023-05-02T01:48:17.514Z,12.23
2023-05-02T01:53:22.656Z,11.03
2023-05-02T01:58:28.413Z,11.60
2023-05-02T02:03:33.620Z,11.35
2023-05-02T02:08:37.384Z,11.84
2023-05-02T02:13:45.837Z,12.06
2023-05-02T02:18:51.726Z,11.77
2023-05-02T02:23:58.836Z,11.73
2023-05-02T02:29:03.075Z,11.59
2023-05-02T02:34:08.661Z,9.63
2023-05-02T02:39:22.717Z,11.55
2023-05-02T02:44:31.735Z,11.84
2023-05-02T02:49:48.955Z,11.24
2023-05-02T02:54:58.349Z,11.72
2023-05-02T03:00:08.434Z,11.00
2023-05-02T03:05:14.208Z,11.82
2023-05-02T03:10:17.713Z,10.52
2023-05-02T03:15:42.953Z,11.52
2023-05-02T03:20:49.513Z,9.23
2023-05-02T03:25:53.623Z,10.99
2023-05-02T03:31:00.818Z,11.47
2023-05-02T03:36:08.137Z,11.35
2023-05-02T03:41:11.861Z,11.49
2023-05-02T03:46:16.301Z,9.83
2023-05-02T03:51:23.104Z,11.51
2023-05-02T03:56:30.314Z,11.30
2023-05-02T04:01:50.718Z,11.26
2023-05-02T04:06:58.163Z,11.31
2023-05-02T04:12:02.120Z,11.22
2023-05-02T04:17:06.911Z,11.58
2023-05-02T04:22:25.551Z,11.23
2023-05-02T04:27:33.833Z,10.86
2023-05-02T04:32:38.994Z,11.70
2023-05-02T04:37:44.441Z,11.52
2023-05-02T04:42:48.340Z,11.71
2023-05-02T04:47:56.097Z,11.73
2023-05-02T04:53:01.462Z,9.66
2023-05-02T04:58:10.162Z,11.90
2023-05-02T05:03:14.668Z,11.79
2023-05-02T05:08:19.731Z,10.58
2023-05-02T05:13:23.283Z,11.13
2023-05-02T05:18:27.408Z,11.88
2023-05-02T05:23:32.467Z,11.92
2023-05-02T05:28:37.005Z,9.76
2023-05-02T05:33:41.379Z,11.89
2023-05-02T05:38:47.738Z,11.53
2023-05-02T05:43:51.548Z,11.75
2023-05-02T05:48:55.422Z,11.83
2023-05-02T05:59:28.349Z,11.47
2023-05-02T06:04:32.657Z,11.98
2023-05-02T06:09:40.145Z,11.49
2023-05-02T06:14:44.282Z,12.02
2023-05-02T06:19:49.341Z,11.82
2023-05-02T06:24:54.562Z,11.61
2023-05-02T06:29:58.393Z,12.14
2023-05-02T06:35:02.679Z,11.83
2023-05-02T06:40:10.461Z,11.50
2023-05-02T06:45:14.180Z,12.21
2023-05-02T06:50:17.753Z,12.23
2023-05-02T06:55:22.540Z,12.26
2023-05-02T07:00:26.158Z,11.82
2023-05-02T07:05:30.729Z,10.60
2023-05-02T07:10:35.607Z,11.97
2023-05-02T07:15:39.150Z,12.00
2023-05-02T07:20:42.994Z,12.40
2023-05-02T07:25:48.710Z,10.84
2023-05-02T07:30:52.385Z,12.51
2023-05-02T07:35:57.145Z,10.89
2023-05-02T07:41:02.268Z,12.40
2023-05-02T07:46:06.962Z,10.80
2023-05-02T07:51:12.202Z,12.91
2023-05-02T07:56:17.092Z,13.05
2023-05-02T08:01:21.182Z,13.06
2023-05-02T08:06:24.641Z,12.73
2023-05-02T08:11:29.508Z,12.71
2023-05-02T08:16:33.174Z,12.94
2023-05-02T08:21:37.251Z,13.29
2023-05-02T08:26:42.332Z,13.13
2023-05-02T08:31:45.967Z,13.27
2023-05-02T08:36:49.783Z,13.05
2023-05-02T08:41:54.902Z,13.60
2023-05-02T08:47:00.989Z,13.73
2023-05-02T08:52:07.857Z,13.03
2023-05-02T08:57:12.754Z,13.54
2023-05-02T09:02:25.049Z,13.82
2023-05-02T09:07:28.588Z,14.04
2023-05-02T09:12:33.615Z,13.72
2023-05-02T09:17:41.665Z,14.34
2023-05-02T09:22:51.032Z,14.60
2023-05-02T09:28:01.503Z,14.19
2023-05-02T09:33:05.289Z,14.05
2023-05-02T09:38:21.082Z,14.39
2023-05-02T09:43:25.988Z,13.10
2023-05-02T09:48:30.964Z,15.21
2023-05-02T09:53:44.322Z,14.86
2023-05-02T09:58:49.260Z,15.75
2023-05-02T10:03:53.878Z,15.85
2023-05-02T10:08:58.191Z,16.08
2023-05-02T10:14:03.273Z,16.37
2023-05-02T10:19:11.234Z,16.24
2023-05-02T10:24:15.547Z,16.74
2023-05-02T10:29:20.903Z,16.94
2023-05-02T10:34:25.338Z,16.23
2023-05-02T10:39:29.460Z,16.36
2023-05-02T10:44:39.005Z,16.81
2023-05-02T10:49:52.113Z,17.16
2023-05-02T10:55:16.964Z,17.04
2023-05-02T11:00:28.980Z,16.56
2023-05-02T11:05:37.075Z,16.94
2023-05-02T11:10:40.855Z,16.95
2023-05-02T11:15:58.273Z,16.38
2023-05-02T11:21:29.819Z,17.48
2023-05-02T11:26:33.642Z,17.26
2023-05-02T11:32:06.127Z,17.56
2023-05-02T11:37:15.500Z,17.24
2023-05-02T11:42:37.167Z,18.23
2023-05-02T11:47:42.822Z,18.21
2023-05-02T11:52:47.200Z,18.20
2023-05-02T11:57:51.561Z,18.14
2023-05-02T12:02:56.577Z,15.81
2023-05-02T12:08:01.417Z,18.02
2023-05-02T12:13:06.741Z,16.91
2023-05-02T12:18:12.064Z,17.63
2023-05-02T12:23:16.334Z,17.91
2023-05-02T12:28:21.106Z,17.92
2023-05-02T12:33:29.821Z,18.10
2023-05-02T12:38:35.774Z,17.97
2023-05-02T12:43:51.247Z,18.43
2023-05-02T12:49:06.638Z,17.77
2023-05-02T12:54:23.258Z,17.70
2023-05-02T12:59:36.685Z,18.13
2023-05-02T13:04:42.587Z,18.83
2023-05-02T13:09:46.869Z,18.33
2023-05-02T13:14:50.731Z,17.78
2023-05-02T13:20:01.602Z,18.18
2023-05-02T13:25:07.321Z,18.25
2023-05-02T13:30:12.157Z,17.98
2023-05-02T13:35:23.645Z,16.66
2023-05-02T13:40:27.420Z,17.05
2023-05-02T13:45:31.028Z,18.12
2023-05-02T13:50:38.465Z,18.17
2023-05-02T13:55:42.235Z,18.17
2023-05-02T14:00:46.340Z,17.97
2023-05-02T14:05:59.684Z,18.66
2023-05-02T14:11:05.782Z,18.54
2023-05-02T14:16:15.786Z,19.13
2023-05-02T14:21:21.059Z,19.11
2023-05-02T14:26:25.978Z,18.24
2023-05-02T14:31:32.168Z,19.35
2023-05-02T14:36:46.270Z,19.26
2023-05-02T14:41:52.684Z,18.49
2023-05-02T14:46:58.545Z,19.96
2023-05-02T14:52:06.346Z,18.40
2023-05-02T14:57:11.483Z,17.12
2023-05-02T15:02:15.567Z,18.21
2023-05-02T15:07:33.568Z,19.46
2023-05-02T15:12:41.183Z,19.57
2023-05-02T15:17:48.356Z,17.50
2023-05-02T15:23:05.963Z,19.65
2023-05-02T15:28:11.302Z,18.33
2023-05-02T15:33:15.048Z,18.42
2023-05-02T15:38:20.252Z,18.72
2023-05-02T15:43:23.899Z,19.79
2023-05-02T15:48:30.698Z,18.92
2023-05-02T15:53:39.522Z,19.92
2023-05-02T15:58:48.707Z,20.10
2023-05-02T16:03:53.174Z,18.79
2023-05-02T16:08:58.726Z,18.71
2023-05-02T16:14:02.338Z,18.49
2023-05-02T16:19:12.585Z,20.19
2023-05-02T16:24:17.541Z,20.68
2023-05-02T16:29:25.317Z,20.22
2023-05-02T16:34:33.521Z,20.31
2023-05-02T16:39:40.166Z,20.01
2023-05-02T16:44:43.901Z,20.61
2023-05-02T16:49:47.729Z,20.00
2023-05-02T16:54:55.509Z,18.29
2023-05-02T17:00:02.506Z,19.62
2023-05-02T17:05:12.063Z,20.73
2023-05-02T17:10:19.199Z,18.71
2023-05-02T17:15:22.927Z,20.43
2023-05-02T17:20:27.303Z,20.69
2023-05-02T17:25:34.819Z,20.63
2023-05-02T17:30:38.815Z,19.10
2023-05-02T17:35:48.483Z,19.37
2023-05-02T17:40:58.383Z,18.91
2023-05-02T17:46:11.091Z,19.81
2023-05-02T17:51:26.946Z,18.79
2023-05-02T17:56:44.940Z,17.08
2023-05-02T18:01:53.716Z,17.44
2023-05-02T18:06:59.638Z,16.68
2023-05-02T18:12:06.351Z,18.39
2023-05-02T18:17:20.518Z,16.74
2023-05-02T18:22:31.154Z,17.43
2023-05-02T18:27:36.545Z,17.83
2023-05-02T18:32:40.780Z,15.62
2023-05-02T18:37:46.655Z,17.57
2023-05-02T18:42:53.121Z,15.13
2023-05-02T18:48:01.045Z,17.34
2023-05-02T18:53:05.417Z,15.03
2023-05-02T18:58:13.091Z,17.78
2023-05-02T19:03:17.371Z,14.56
2023-05-02T19:08:21.256Z,16.33
2023-05-02T19:13:27.078Z,16.19
2023-05-02T19:18:30.836Z,15.21
2023-05-02T19:23:35.759Z,17.22
2023-05-02T19:28:41.380Z,14.61
2023-05-02T19:33:51.145Z,17.03
2023-05-02T19:38:58.368Z,14.46
2023-05-02T19:44:03.700Z,14.76
2023-05-02T19:49:07.475Z,16.68
2023-05-02T19:54:12.055Z,16.50
2023-05-02T19:59:18.534Z,15.75
2023-05-02T20:04:25.119Z,13.54
2023-05-02T20:09:38.121Z,15.40
2023-05-02T20:14:43.570Z,15.72
2023-05-02T20:19:52.069Z,14.20
2023-05-02T20:24:56.072Z,14.58
2023-05-02T20:30:07.544Z,13.53
2023-05-02T20:35:11.896Z,13.58
2023-05-02T20:40:15.827Z,15.29
2023-05-02T20:45:24.624Z,14.32
2023-05-02T20:50:29.841Z,15.49
2023-05-02T20:55:35.855Z,14.81
2023-05-02T21:00:42.228Z,13.72
2023-05-02T21:05:46.424Z,15.30
2023-05-02T21:10:50.553Z,13.95
2023-05-02T21:15:56.440Z,13.87
2023-05-02T21:21:02.269Z,13.83
2023-05-02T21:26:06.150Z,14.98
2023-05-02T21:31:54.782Z,13.66
2023-05-02T21:37:07.260Z,12.65
2023-05-02T21:42:20.331Z,14.50
2023-05-02T21:47:26.467Z,11.77
2023-05-02T21:52:31.890Z,12.38
2023-05-02T21:57:36.015Z,13.74
2023-05-02T22:02:43.046Z,14.09
2023-05-02T22:07:52.368Z,12.65
2023-05-02T22:12:56.724Z,13.13
2023-05-02T22:18:02.622Z,13.45
2023-05-02T22:23:06.541Z,13.91
2023-05-02T22:28:11.589Z,12.61
2023-05-02T22:33:17.029Z,11.78
2023-05-02T22:38:21.358Z,12.44
2023-05-02T22:43:26.240Z,12.14
2023-05-02T22:48:32.258Z,12.46
2023-05-02T22:53:36.697Z,13.16
2023-05-02T22:58:40.262Z,13.39
2023-05-02T23:03:45.655Z,12.78
2023-05-02T23:08:49.378Z,11.26
2023-05-02T23:13:53.086Z,12.23
2023-05-02T23:18:58.282Z,11.20
2023-05-02T23:24:02.078Z,12.11
2023-05-02T23:29:06.391Z,11.94
2023-05-02T23:34:12.176Z,12.88
2023-05-02T23:39:16.353Z,12.14
2023-05-02T23:44:20.052Z,11.49
2023-05-02T23:49:25.356Z,10.38
2023-05-02T23:54:35.018Z,12.21
2023-05-02T23:59:38.890Z,12.18
